sensor_id;sensor_type;location;lat;lon;timestamp;P1;durP1;ratioP1;P2;durP2;ratioP2
10535;SDS011;5316;49.538;8.352;2023-03-25T00:01:46;3.77;;;0.70;;
10535;SDS011;5316;49.538;8.352;2023-03-25T00:04:13;2.20;;;0.50;;
10535;SDS011;5316;49.538;8.352;2023-03-25T00:06:43;4.70;;;0.80;;
10535;SDS011;5316;49.538;8.352;2023-03-25T00:09:12;1.23;;;0.60;;
10535;SDS011;5316;49.538;8.352;2023-03-25T00:11:42;2.00;;;0.47;;
10535;SDS011;5316;49.538;8.352;2023-03-25T00:14:14;1.00;;;0.50;;
10535;SDS011;5316;49.538;8.352;2023-03-25T00:16:43;3.67;;;0.60;;
10535;SDS011;5316;49.538;8.352;2023-03-25T00:19:21;1.37;;;0.50;;
10535;SDS011;5316;49.538;8.352;2023-03-25T00:21:49;3.47;;;0.60;;
10535;SDS011;5316;49.538;8.352;2023-03-25T00:24:20;4.87;;;0.87;;
10535;SDS011;5316;49.538;8.352;2023-03-25T00:26:47;2.73;;;0.60;;
10535;SDS011;5316;49.538;8.352;2023-03-25T00:29:18;5.23;;;1.03;;
10535;SDS011;5316;49.538;8.352;2023-03-25T00:31:47;4.43;;;0.70;;
10535;SDS011;5316;49.538;8.352;2023-03-25T00:34:15;1.90;;;0.70;;
10535;SDS011;5316;49.538;8.352;2023-03-25T00:36:45;2.63;;;0.70;;
10535;SDS011;5316;49.538;8.352;2023-03-25T00:39:20;2.00;;;0.50;;
10535;SDS011;5316;49.538;8.352;2023-03-25T00:41:54;1.17;;;0.40;;
10535;SDS011;5316;49.538;8.352;2023-03-25T00:44:23;1.27;;;0.50;;
10535;SDS011;5316;49.538;8.352;2023-03-25T00:46:52;2.23;;;0.60;;
10535;SDS011;5316;49.538;8.352;2023-03-25T00:49:32;2.37;;;0.50;;
10535;SDS011;5316;49.538;8.352;2023-03-25T00:52:08;3.87;;;0.60;;
10535;SDS011;5316;49.538;8.352;2023-03-25T00:54:38;2.23;;;0.57;;
10535;SDS011;5316;49.538;8.352;2023-03-25T00:57:11;1.70;;;0.70;;
10535;SDS011;5316;49.538;8.352;2023-03-25T00:59:41;2.77;;;0.50;;
10535;SDS011;5316;49.538;8.352;2023-03-25T01:02:25;1.13;;;0.40;;
10535;SDS011;5316;49.538;8.352;2023-03-25T01:04:55;2.40;;;0.47;;
10535;SDS011;5316;49.538;8.352;2023-03-25T01:07:24;3.70;;;0.47;;
10535;SDS011;5316;49.538;8.352;2023-03-25T01:09:56;2.17;;;0.50;;
10535;SDS011;5316;49.538;8.352;2023-03-25T01:12:24;1.77;;;0.60;;
10535;SDS011;5316;49.538;8.352;2023-03-25T01:14:53;3.33;;;0.80;;
10535;SDS011;5316;49.538;8.352;2023-03-25T01:17:29;1.57;;;0.50;;
10535;SDS011;5316;49.538;8.352;2023-03-25T01:20:03;1.93;;;0.57;;
10535;SDS011;5316;49.538;8.352;2023-03-25T01:22:35;3.10;;;0.50;;
10535;SDS011;5316;49.538;8.352;2023-03-25T01:25:30;1.43;;;0.60;;
10535;SDS011;5316;49.538;8.352;2023-03-25T01:27:59;2.30;;;0.70;;
10535;SDS011;5316;49.538;8.352;2023-03-25T01:30:26;1.50;;;0.50;;
10535;SDS011;5316;49.538;8.352;2023-03-25T01:32:53;2.37;;;0.50;;
10535;SDS011;5316;49.538;8.352;2023-03-25T01:35:20;2.43;;;0.70;;
10535;SDS011;5316;49.538;8.352;2023-03-25T01:37:46;3.33;;;0.60;;
10535;SDS011;5316;49.538;8.352;2023-03-25T01:40:16;1.43;;;0.53;;
10535;SDS011;5316;49.538;8.352;2023-03-25T01:42:46;1.83;;;0.60;;
10535;SDS011;5316;49.538;8.352;2023-03-25T01:45:18;0.73;;;0.40;;
10535;SDS011;5316;49.538;8.352;2023-03-25T01:47:54;0.63;;;0.40;;
10535;SDS011;5316;49.538;8.352;2023-03-25T01:50:34;3.13;;;0.40;;
10535;SDS011;5316;49.538;8.352;2023-03-25T01:53:03;0.63;;;0.40;;
10535;SDS011;5316;49.538;8.352;2023-03-25T01:55:32;0.20;;;0.20;;
10535;SDS011;5316;49.538;8.352;2023-03-25T01:58:02;0.20;;;0.20;;
10535;SDS011;5316;49.538;8.352;2023-03-25T02:00:34;1.27;;;0.30;;
10535;SDS011;5316;49.538;8.352;2023-03-25T02:03:03;1.27;;;0.40;;
10535;SDS011;5316;49.538;8.352;2023-03-25T02:05:33;0.80;;;0.23;;
10535;SDS011;5316;49.538;8.352;2023-03-25T02:08:05;0.30;;;0.23;;
10535;SDS011;5316;49.538;8.352;2023-03-25T02:10:34;0.43;;;0.20;;
10535;SDS011;5316;49.538;8.352;2023-03-25T02:13:02;0.47;;;0.30;;
10535;SDS011;5316;49.538;8.352;2023-03-25T02:15:36;0.30;;;0.30;;
10535;SDS011;5316;49.538;8.352;2023-03-25T02:18:21;0.77;;;0.40;;
10535;SDS011;5316;49.538;8.352;2023-03-25T02:21:03;0.20;;;0.20;;
10535;SDS011;5316;49.538;8.352;2023-03-25T02:26:57;0.23;;;0.20;;
10535;SDS011;5316;49.538;8.352;2023-03-25T02:29:46;0.33;;;0.30;;
10535;SDS011;5316;49.538;8.352;2023-03-25T02:32:26;0.50;;;0.30;;
10535;SDS011;5316;49.538;8.352;2023-03-25T02:35:13;0.37;;;0.30;;
10535;SDS011;5316;49.538;8.352;2023-03-25T02:38:03;0.80;;;0.27;;
10535;SDS011;5316;49.538;8.352;2023-03-25T02:40:47;0.30;;;0.30;;
10535;SDS011;5316;49.538;8.352;2023-03-25T02:43:22;1.23;;;0.40;;
10535;SDS011;5316;49.538;8.352;2023-03-25T02:45:57;0.50;;;0.50;;
10535;SDS011;5316;49.538;8.352;2023-03-25T02:48:28;2.83;;;0.50;;
10535;SDS011;5316;49.538;8.352;2023-03-25T02:51:00;1.33;;;0.40;;
10535;SDS011;5316;49.538;8.352;2023-03-25T02:53:35;0.80;;;0.30;;
10535;SDS011;5316;49.538;8.352;2023-03-25T02:56:05;1.23;;;0.40;;
10535;SDS011;5316;49.538;8.352;2023-03-25T02:58:35;0.80;;;0.47;;
10535;SDS011;5316;49.538;8.352;2023-03-25T03:01:05;2.20;;;0.40;;
10535;SDS011;5316;49.538;8.352;2023-03-25T03:03:34;2.40;;;0.60;;
10535;SDS011;5316;49.538;8.352;2023-03-25T03:06:02;0.67;;;0.40;;
10535;SDS011;5316;49.538;8.352;2023-03-25T03:08:36;0.67;;;0.37;;
10535;SDS011;5316;49.538;8.352;2023-03-25T03:11:12;1.03;;;0.50;;
10535;SDS011;5316;49.538;8.352;2023-03-25T03:13:49;0.73;;;0.50;;
10535;SDS011;5316;49.538;8.352;2023-03-25T03:16:26;0.70;;;0.40;;
10535;SDS011;5316;49.538;8.352;2023-03-25T03:19:01;0.77;;;0.40;;
10535;SDS011;5316;49.538;8.352;2023-03-25T03:21:38;0.70;;;0.37;;
10535;SDS011;5316;49.538;8.352;2023-03-25T03:24:13;1.23;;;0.50;;
10535;SDS011;5316;49.538;8.352;2023-03-25T03:26:46;0.80;;;0.40;;
10535;SDS011;5316;49.538;8.352;2023-03-25T03:29:17;2.37;;;0.50;;
10535;SDS011;5316;49.538;8.352;2023-03-25T03:31:51;1.83;;;0.50;;
10535;SDS011;5316;49.538;8.352;2023-03-25T03:34:25;1.40;;;0.50;;
10535;SDS011;5316;49.538;8.352;2023-03-25T03:37:00;2.03;;;0.63;;
10535;SDS011;5316;49.538;8.352;2023-03-25T03:39:32;1.10;;;0.70;;
10535;SDS011;5316;49.538;8.352;2023-03-25T03:42:03;1.90;;;0.73;;
10535;SDS011;5316;49.538;8.352;2023-03-25T03:44:37;0.93;;;0.50;;
10535;SDS011;5316;49.538;8.352;2023-03-25T03:47:08;1.60;;;0.50;;
10535;SDS011;5316;49.538;8.352;2023-03-25T03:49:38;2.83;;;0.70;;
10535;SDS011;5316;49.538;8.352;2023-03-25T03:52:09;1.97;;;0.80;;
10535;SDS011;5316;49.538;8.352;2023-03-25T03:54:43;2.33;;;0.60;;
10535;SDS011;5316;49.538;8.352;2023-03-25T03:57:15;1.60;;;0.50;;
10535;SDS011;5316;49.538;8.352;2023-03-25T03:59:49;1.57;;;0.50;;
10535;SDS011;5316;49.538;8.352;2023-03-25T04:02:23;3.13;;;0.40;;
10535;SDS011;5316;49.538;8.352;2023-03-25T04:04:53;3.67;;;0.87;;
10535;SDS011;5316;49.538;8.352;2023-03-25T04:07:27;2.43;;;0.80;;
10535;SDS011;5316;49.538;8.352;2023-03-25T04:10:06;2.80;;;0.60;;
10535;SDS011;5316;49.538;8.352;2023-03-25T04:12:39;2.43;;;0.60;;
10535;SDS011;5316;49.538;8.352;2023-03-25T04:15:09;1.60;;;0.57;;
10535;SDS011;5316;49.538;8.352;2023-03-25T04:17:37;2.70;;;0.60;;
10535;SDS011;5316;49.538;8.352;2023-03-25T04:20:04;1.97;;;0.70;;
10535;SDS011;5316;49.538;8.352;2023-03-25T04:22:35;2.10;;;0.60;;
10535;SDS011;5316;49.538;8.352;2023-03-25T04:25:05;2.60;;;0.60;;
10535;SDS011;5316;49.538;8.352;2023-03-25T04:27:33;1.57;;;0.70;;
10535;SDS011;5316;49.538;8.352;2023-03-25T04:30:01;3.70;;;0.60;;
10535;SDS011;5316;49.538;8.352;2023-03-25T04:32:30;3.47;;;0.70;;
10535;SDS011;5316;49.538;8.352;2023-03-25T04:34:57;2.57;;;0.60;;
10535;SDS011;5316;49.538;8.352;2023-03-25T04:37:24;2.63;;;0.60;;
10535;SDS011;5316;49.538;8.352;2023-03-25T04:39:52;2.53;;;0.67;;
10535;SDS011;5316;49.538;8.352;2023-03-25T04:42:25;2.30;;;0.70;;
10535;SDS011;5316;49.538;8.352;2023-03-25T04:44:56;3.90;;;0.60;;
10535;SDS011;5316;49.538;8.352;2023-03-25T04:47:23;3.87;;;1.53;;
10535;SDS011;5316;49.538;8.352;2023-03-25T04:49:51;3.30;;;1.17;;
10535;SDS011;5316;49.538;8.352;2023-03-25T04:52:18;3.53;;;0.63;;
10535;SDS011;5316;49.538;8.352;2023-03-25T04:54:44;2.87;;;0.77;;
10535;SDS011;5316;49.538;8.352;2023-03-25T04:57:11;3.43;;;0.60;;
10535;SDS011;5316;49.538;8.352;2023-03-25T04:59:40;3.27;;;0.70;;
10535;SDS011;5316;49.538;8.352;2023-03-25T05:02:09;5.83;;;1.10;;
10535;SDS011;5316;49.538;8.352;2023-03-25T05:04:37;6.10;;;0.80;;
10535;SDS011;5316;49.538;8.352;2023-03-25T05:07:07;3.13;;;0.80;;
10535;SDS011;5316;49.538;8.352;2023-03-25T05:09:34;3.83;;;0.73;;
10535;SDS011;5316;49.538;8.352;2023-03-25T05:12:01;1.40;;;0.70;;
10535;SDS011;5316;49.538;8.352;2023-03-25T05:14:28;4.07;;;0.70;;
10535;SDS011;5316;49.538;8.352;2023-03-25T05:16:56;2.37;;;0.53;;
10535;SDS011;5316;49.538;8.352;2023-03-25T05:19:24;3.10;;;0.70;;
10535;SDS011;5316;49.538;8.352;2023-03-25T05:21:53;3.10;;;0.70;;
10535;SDS011;5316;49.538;8.352;2023-03-25T05:24:21;2.07;;;0.50;;
10535;SDS011;5316;49.538;8.352;2023-03-25T05:26:48;1.87;;;0.60;;
10535;SDS011;5316;49.538;8.352;2023-03-25T05:29:15;4.50;;;0.87;;
10535;SDS011;5316;49.538;8.352;2023-03-25T05:31:42;2.50;;;0.90;;
10535;SDS011;5316;49.538;8.352;2023-03-25T05:34:14;5.07;;;1.73;;
10535;SDS011;5316;49.538;8.352;2023-03-25T05:36:41;3.40;;;0.80;;
10535;SDS011;5316;49.538;8.352;2023-03-25T05:39:08;3.57;;;1.03;;
10535;SDS011;5316;49.538;8.352;2023-03-25T05:41:36;2.00;;;0.83;;
10535;SDS011;5316;49.538;8.352;2023-03-25T05:44:06;3.07;;;0.80;;
10535;SDS011;5316;49.538;8.352;2023-03-25T05:46:38;4.47;;;0.73;;
10535;SDS011;5316;49.538;8.352;2023-03-25T05:49:42;4.40;;;0.70;;
10535;SDS011;5316;49.538;8.352;2023-03-25T05:52:10;4.40;;;0.80;;
10535;SDS011;5316;49.538;8.352;2023-03-25T05:54:41;3.93;;;1.10;;
10535;SDS011;5316;49.538;8.352;2023-03-25T05:57:09;4.87;;;1.17;;
10535;SDS011;5316;49.538;8.352;2023-03-25T05:59:40;4.20;;;0.83;;
10535;SDS011;5316;49.538;8.352;2023-03-25T06:02:11;5.57;;;1.10;;
10535;SDS011;5316;49.538;8.352;2023-03-25T06:04:39;3.87;;;1.40;;
10535;SDS011;5316;49.538;8.352;2023-03-25T06:07:08;5.27;;;1.10;;
10535;SDS011;5316;49.538;8.352;2023-03-25T06:09:39;7.97;;;1.70;;
10535;SDS011;5316;49.538;8.352;2023-03-25T06:12:12;4.73;;;1.10;;
10535;SDS011;5316;49.538;8.352;2023-03-25T06:14:44;3.77;;;0.73;;
10535;SDS011;5316;49.538;8.352;2023-03-25T06:17:11;4.67;;;1.00;;
10535;SDS011;5316;49.538;8.352;2023-03-25T06:19:38;5.70;;;1.30;;
10535;SDS011;5316;49.538;8.352;2023-03-25T06:22:09;6.03;;;1.17;;
10535;SDS011;5316;49.538;8.352;2023-03-25T06:24:37;4.73;;;1.07;;
10535;SDS011;5316;49.538;8.352;2023-03-25T06:27:07;4.60;;;1.00;;
10535;SDS011;5316;49.538;8.352;2023-03-25T06:29:44;7.43;;;1.43;;
10535;SDS011;5316;49.538;8.352;2023-03-25T06:32:14;8.23;;;1.50;;
10535;SDS011;5316;49.538;8.352;2023-03-25T06:38:37;9.10;;;1.10;;
10535;SDS011;5316;49.538;8.352;2023-03-25T06:47:48;8.03;;;1.30;;
10535;SDS011;5316;49.538;8.352;2023-03-25T06:50:31;4.93;;;1.20;;
10535;SDS011;5316;49.538;8.352;2023-03-25T06:52:58;7.13;;;1.40;;
10535;SDS011;5316;49.538;8.352;2023-03-25T06:55:26;9.10;;;1.73;;
10535;SDS011;5316;49.538;8.352;2023-03-25T08:07:42;9.20;;;1.70;;
10535;SDS011;5316;49.538;8.352;2023-03-25T08:10:09;7.03;;;1.53;;
10535;SDS011;5316;49.538;8.352;2023-03-25T08:12:39;7.80;;;1.23;;
10535;SDS011;5316;49.538;8.352;2023-03-25T08:15:06;5.80;;;1.10;;
10535;SDS011;5316;49.538;8.352;2023-03-25T08:17:34;7.30;;;0.90;;
10535;SDS011;5316;49.538;8.352;2023-03-25T08:20:01;9.67;;;1.60;;
10535;SDS011;5316;49.538;8.352;2023-03-25T08:22:29;4.10;;;1.20;;
10535;SDS011;5316;49.538;8.352;2023-03-25T08:24:58;6.00;;;1.10;;
10535;SDS011;5316;49.538;8.352;2023-03-25T08:27:25;7.27;;;1.20;;
10535;SDS011;5316;49.538;8.352;2023-03-25T08:29:52;3.90;;;0.97;;
10535;SDS011;5316;49.538;8.352;2023-03-25T08:32:21;7.87;;;1.47;;
10535;SDS011;5316;49.538;8.352;2023-03-25T08:34:50;7.57;;;2.47;;
10535;SDS011;5316;49.538;8.352;2023-03-25T08:37:17;3.40;;;0.90;;
10535;SDS011;5316;49.538;8.352;2023-03-25T08:39:44;4.17;;;0.93;;
10535;SDS011;5316;49.538;8.352;2023-03-25T08:42:15;2.10;;;0.80;;
10535;SDS011;5316;49.538;8.352;2023-03-25T08:44:43;3.90;;;0.80;;
10535;SDS011;5316;49.538;8.352;2023-03-25T08:47:10;5.13;;;1.10;;
10535;SDS011;5316;49.538;8.352;2023-03-25T08:49:37;4.33;;;0.80;;
10535;SDS011;5316;49.538;8.352;2023-03-25T08:52:04;6.07;;;0.90;;
10535;SDS011;5316;49.538;8.352;2023-03-25T08:54:32;3.70;;;0.90;;
10535;SDS011;5316;49.538;8.352;2023-03-25T08:57:00;3.77;;;0.70;;
10535;SDS011;5316;49.538;8.352;2023-03-25T08:59:28;5.53;;;0.90;;
10535;SDS011;5316;49.538;8.352;2023-03-25T09:01:55;3.93;;;0.87;;
10535;SDS011;5316;49.538;8.352;2023-03-25T09:04:22;3.50;;;0.80;;
10535;SDS011;5316;49.538;8.352;2023-03-25T09:06:49;3.80;;;0.80;;
10535;SDS011;5316;49.538;8.352;2023-03-25T09:09:16;2.23;;;0.73;;
10535;SDS011;5316;49.538;8.352;2023-03-25T09:11:43;4.00;;;0.70;;
10535;SDS011;5316;49.538;8.352;2023-03-25T09:14:10;3.43;;;0.70;;
10535;SDS011;5316;49.538;8.352;2023-03-25T09:16:39;3.10;;;0.90;;
10535;SDS011;5316;49.538;8.352;2023-03-25T09:19:07;3.80;;;0.87;;
10535;SDS011;5316;49.538;8.352;2023-03-25T09:21:33;2.87;;;0.80;;
10535;SDS011;5316;49.538;8.352;2023-03-25T09:24:00;2.87;;;0.80;;
10535;SDS011;5316;49.538;8.352;2023-03-25T09:26:27;2.57;;;0.80;;
10535;SDS011;5316;49.538;8.352;2023-03-25T09:28:54;3.13;;;0.70;;
10535;SDS011;5316;49.538;8.352;2023-03-25T09:31:21;3.10;;;0.70;;
10535;SDS011;5316;49.538;8.352;2023-03-25T09:33:50;4.70;;;0.83;;
10535;SDS011;5316;49.538;8.352;2023-03-25T09:36:16;2.47;;;0.67;;
10535;SDS011;5316;49.538;8.352;2023-03-25T09:38:43;4.57;;;0.80;;
10535;SDS011;5316;49.538;8.352;2023-03-25T09:41:17;2.50;;;0.57;;
10535;SDS011;5316;49.538;8.352;2023-03-25T09:44:01;3.20;;;0.83;;
10535;SDS011;5316;49.538;8.352;2023-03-25T09:46:32;3.17;;;0.60;;
10535;SDS011;5316;49.538;8.352;2023-03-25T09:49:03;2.77;;;1.37;;
10535;SDS011;5316;49.538;8.352;2023-03-25T09:51:35;1.90;;;0.67;;
10535;SDS011;5316;49.538;8.352;2023-03-25T09:54:07;3.13;;;1.20;;
10535;SDS011;5316;49.538;8.352;2023-03-25T09:56:41;2.97;;;0.67;;
10535;SDS011;5316;49.538;8.352;2023-03-25T09:59:10;3.70;;;1.30;;
10535;SDS011;5316;49.538;8.352;2023-03-25T10:01:43;4.13;;;0.80;;
10535;SDS011;5316;49.538;8.352;2023-03-25T10:07:34;3.13;;;0.80;;
10535;SDS011;5316;49.538;8.352;2023-03-25T10:10:11;1.70;;;0.70;;
10535;SDS011;5316;49.538;8.352;2023-03-25T10:12:47;4.00;;;0.80;;
10535;SDS011;5316;49.538;8.352;2023-03-25T10:15:23;1.83;;;0.70;;
10535;SDS011;5316;49.538;8.352;2023-03-25T10:17:58;1.67;;;0.57;;
10535;SDS011;5316;49.538;8.352;2023-03-25T10:20:40;2.47;;;0.60;;
10535;SDS011;5316;49.538;8.352;2023-03-25T10:23:15;3.80;;;0.70;;
10535;SDS011;5316;49.538;8.352;2023-03-25T10:25:51;2.50;;;0.73;;
10535;SDS011;5316;49.538;8.352;2023-03-25T10:28:24;2.63;;;0.70;;
10535;SDS011;5316;49.538;8.352;2023-03-25T10:30:53;2.60;;;1.20;;
10535;SDS011;5316;49.538;8.352;2023-03-25T10:33:24;1.73;;;0.70;;
10535;SDS011;5316;49.538;8.352;2023-03-25T10:35:56;3.13;;;0.80;;
10535;SDS011;5316;49.538;8.352;2023-03-25T10:38:28;3.93;;;0.77;;
10535;SDS011;5316;49.538;8.352;2023-03-25T10:41:02;4.40;;;1.17;;
10535;SDS011;5316;49.538;8.352;2023-03-25T10:43:37;3.17;;;0.40;;
10535;SDS011;5316;49.538;8.352;2023-03-25T10:46:07;1.47;;;0.40;;
10535;SDS011;5316;49.538;8.352;2023-03-25T10:48:42;2.33;;;0.50;;
10535;SDS011;5316;49.538;8.352;2023-03-25T10:51:12;1.67;;;0.53;;
10535;SDS011;5316;49.538;8.352;2023-03-25T10:53:44;1.70;;;0.50;;
10535;SDS011;5316;49.538;8.352;2023-03-25T10:56:14;1.83;;;0.40;;
10535;SDS011;5316;49.538;8.352;2023-03-25T10:58:44;2.60;;;0.50;;
10535;SDS011;5316;49.538;8.352;2023-03-25T11:01:16;1.33;;;0.40;;
10535;SDS011;5316;49.538;8.352;2023-03-25T11:03:45;1.13;;;0.67;;
10535;SDS011;5316;49.538;8.352;2023-03-25T11:06:19;0.90;;;0.43;;
10535;SDS011;5316;49.538;8.352;2023-03-25T11:08:57;1.10;;;0.40;;
10535;SDS011;5316;49.538;8.352;2023-03-25T11:11:40;1.57;;;0.40;;
10535;SDS011;5316;49.538;8.352;2023-03-25T11:14:08;1.37;;;0.30;;
10535;SDS011;5316;49.538;8.352;2023-03-25T11:16:39;1.40;;;0.40;;
10535;SDS011;5316;49.538;8.352;2023-03-25T11:19:13;2.53;;;0.40;;
10535;SDS011;5316;49.538;8.352;2023-03-25T11:21:45;1.13;;;0.40;;
10535;SDS011;5316;49.538;8.352;2023-03-25T11:24:17;2.17;;;0.90;;
10535;SDS011;5316;49.538;8.352;2023-03-25T11:26:45;1.87;;;0.53;;
10535;SDS011;5316;49.538;8.352;2023-03-25T11:29:17;1.43;;;0.50;;
10535;SDS011;5316;49.538;8.352;2023-03-25T11:31:54;1.43;;;0.50;;
10535;SDS011;5316;49.538;8.352;2023-03-25T11:34:23;1.83;;;0.47;;
10535;SDS011;5316;49.538;8.352;2023-03-25T11:36:51;0.83;;;0.40;;
10535;SDS011;5316;49.538;8.352;2023-03-25T11:39:26;2.43;;;0.60;;
10535;SDS011;5316;49.538;8.352;2023-03-25T11:41:58;3.33;;;0.90;;
10535;SDS011;5316;49.538;8.352;2023-03-25T11:44:26;1.30;;;0.60;;
10535;SDS011;5316;49.538;8.352;2023-03-25T11:46:55;2.20;;;0.80;;
10535;SDS011;5316;49.538;8.352;2023-03-25T11:49:24;2.03;;;0.60;;
10535;SDS011;5316;49.538;8.352;2023-03-25T11:51:56;2.77;;;0.60;;
10535;SDS011;5316;49.538;8.352;2023-03-25T11:54:27;2.13;;;0.60;;
10535;SDS011;5316;49.538;8.352;2023-03-25T11:56:54;1.17;;;0.60;;
10535;SDS011;5316;49.538;8.352;2023-03-25T11:59:23;3.27;;;0.80;;
10535;SDS011;5316;49.538;8.352;2023-03-25T12:01:52;3.03;;;0.90;;
10535;SDS011;5316;49.538;8.352;2023-03-25T12:04:27;2.20;;;0.60;;
10535;SDS011;5316;49.538;8.352;2023-03-25T12:06:55;1.00;;;0.50;;
10535;SDS011;5316;49.538;8.352;2023-03-25T12:09:27;0.80;;;0.50;;
10535;SDS011;5316;49.538;8.352;2023-03-25T12:11:59;1.47;;;0.50;;
10535;SDS011;5316;49.538;8.352;2023-03-25T12:14:41;1.70;;;0.50;;
10535;SDS011;5316;49.538;8.352;2023-03-25T12:17:20;3.17;;;1.07;;
10535;SDS011;5316;49.538;8.352;2023-03-25T12:19:56;2.97;;;0.83;;
10535;SDS011;5316;49.538;8.352;2023-03-25T12:22:39;1.93;;;0.80;;
10535;SDS011;5316;49.538;8.352;2023-03-25T12:25:21;3.60;;;0.60;;
10535;SDS011;5316;49.538;8.352;2023-03-25T12:28:01;3.13;;;0.63;;
10535;SDS011;5316;49.538;8.352;2023-03-25T12:30:39;1.50;;;0.50;;
10535;SDS011;5316;49.538;8.352;2023-03-25T12:33:22;3.03;;;1.03;;
10535;SDS011;5316;49.538;8.352;2023-03-25T12:36:04;0.80;;;0.60;;
10535;SDS011;5316;49.538;8.352;2023-03-25T12:38:43;1.47;;;0.53;;
10535;SDS011;5316;49.538;8.352;2023-03-25T12:41:20;2.70;;;0.70;;
10535;SDS011;5316;49.538;8.352;2023-03-25T12:43:59;0.80;;;0.47;;
10535;SDS011;5316;49.538;8.352;2023-03-25T12:46:33;2.23;;;0.70;;
10535;SDS011;5316;49.538;8.352;2023-03-25T12:49:14;1.07;;;0.50;;
10535;SDS011;5316;49.538;8.352;2023-03-25T12:51:51;3.57;;;0.67;;
10535;SDS011;5316;49.538;8.352;2023-03-25T12:54:31;1.47;;;0.50;;
10535;SDS011;5316;49.538;8.352;2023-03-25T13:32:26;2.17;;;0.73;;
10535;SDS011;5316;49.538;8.352;2023-03-25T13:34:59;3.07;;;0.70;;
10535;SDS011;5316;49.538;8.352;2023-03-25T13:37:32;4.07;;;0.70;;
10535;SDS011;5316;49.538;8.352;2023-03-25T13:40:08;1.80;;;0.70;;
10535;SDS011;5316;49.538;8.352;2023-03-25T13:42:49;2.63;;;0.70;;
10535;SDS011;5316;49.538;8.352;2023-03-25T13:45:21;1.53;;;0.60;;
10535;SDS011;5316;49.538;8.352;2023-03-25T13:47:50;2.13;;;0.60;;
10535;SDS011;5316;49.538;8.352;2023-03-25T13:50:23;1.77;;;0.53;;
10535;SDS011;5316;49.538;8.352;2023-03-25T13:52:53;2.77;;;0.70;;
10535;SDS011;5316;49.538;8.352;2023-03-25T13:55:27;1.13;;;0.60;;
10535;SDS011;5316;49.538;8.352;2023-03-25T14:01:09;2.10;;;0.50;;
10535;SDS011;5316;49.538;8.352;2023-03-25T14:04:08;3.03;;;0.60;;
10535;SDS011;5316;49.538;8.352;2023-03-25T14:07:07;3.07;;;0.80;;
10535;SDS011;5316;49.538;8.352;2023-03-25T14:09:58;1.23;;;0.60;;
10535;SDS011;5316;49.538;8.352;2023-03-25T14:12:43;2.13;;;0.80;;
10535;SDS011;5316;49.538;8.352;2023-03-25T14:15:14;1.90;;;0.70;;
10535;SDS011;5316;49.538;8.352;2023-03-25T14:17:45;3.40;;;0.60;;
10535;SDS011;5316;49.538;8.352;2023-03-25T14:20:16;1.40;;;0.70;;
10535;SDS011;5316;49.538;8.352;2023-03-25T14:22:48;1.93;;;0.70;;
10535;SDS011;5316;49.538;8.352;2023-03-25T14:25:26;5.07;;;0.77;;
10535;SDS011;5316;49.538;8.352;2023-03-25T14:27:58;1.33;;;0.60;;
10535;SDS011;5316;49.538;8.352;2023-03-25T14:30:27;2.00;;;0.50;;
10535;SDS011;5316;49.538;8.352;2023-03-25T14:32:56;1.80;;;0.70;;
10535;SDS011;5316;49.538;8.352;2023-03-25T14:41:16;1.10;;;0.60;;
10535;SDS011;5316;49.538;8.352;2023-03-25T14:43:45;3.07;;;0.57;;
10535;SDS011;5316;49.538;8.352;2023-03-25T14:46:26;4.23;;;0.90;;
10535;SDS011;5316;49.538;8.352;2023-03-25T14:49:08;1.87;;;0.73;;
10535;SDS011;5316;49.538;8.352;2023-03-25T14:51:43;2.50;;;0.60;;
10535;SDS011;5316;49.538;8.352;2023-03-25T14:54:28;4.17;;;0.67;;
10535;SDS011;5316;49.538;8.352;2023-03-25T14:57:08;2.37;;;0.67;;
10535;SDS011;5316;49.538;8.352;2023-03-25T14:59:43;2.33;;;0.80;;
10535;SDS011;5316;49.538;8.352;2023-03-25T15:02:14;2.73;;;0.60;;
10535;SDS011;5316;49.538;8.352;2023-03-25T15:04:50;4.10;;;0.77;;
10535;SDS011;5316;49.538;8.352;2023-03-25T15:07:19;1.37;;;0.63;;
10535;SDS011;5316;49.538;8.352;2023-03-25T15:10:07;1.77;;;0.83;;
10535;SDS011;5316;49.538;8.352;2023-03-25T15:12:47;3.13;;;0.90;;
10535;SDS011;5316;49.538;8.352;2023-03-25T15:15:26;1.87;;;0.70;;
10535;SDS011;5316;49.538;8.352;2023-03-25T15:17:55;1.43;;;0.70;;
10535;SDS011;5316;49.538;8.352;2023-03-25T15:20:26;1.33;;;0.77;;
10535;SDS011;5316;49.538;8.352;2023-03-25T15:25:54;3.87;;;1.30;;
10535;SDS011;5316;49.538;8.352;2023-03-25T15:28:27;3.27;;;0.80;;
10535;SDS011;5316;49.538;8.352;2023-03-25T15:34:24;2.53;;;0.70;;
10535;SDS011;5316;49.538;8.352;2023-03-25T15:37:09;1.10;;;0.60;;
10535;SDS011;5316;49.538;8.352;2023-03-25T15:40:08;2.40;;;0.87;;
10535;SDS011;5316;49.538;8.352;2023-03-25T15:42:43;1.90;;;0.83;;
10535;SDS011;5316;49.538;8.352;2023-03-25T15:45:40;3.23;;;0.90;;
10535;SDS011;5316;49.538;8.352;2023-03-25T15:48:28;2.13;;;0.93;;
10535;SDS011;5316;49.538;8.352;2023-03-25T15:54:13;4.03;;;0.80;;
10535;SDS011;5316;49.538;8.352;2023-03-25T15:56:54;3.27;;;0.77;;
10535;SDS011;5316;49.538;8.352;2023-03-25T15:59:27;3.70;;;0.73;;
10535;SDS011;5316;49.538;8.352;2023-03-25T16:02:00;2.80;;;0.70;;
10535;SDS011;5316;49.538;8.352;2023-03-25T16:04:39;2.30;;;0.77;;
10535;SDS011;5316;49.538;8.352;2023-03-25T16:07:08;1.33;;;0.63;;
10535;SDS011;5316;49.538;8.352;2023-03-25T16:09:39;3.60;;;2.10;;
10535;SDS011;5316;49.538;8.352;2023-03-25T16:12:10;3.07;;;0.70;;
10535;SDS011;5316;49.538;8.352;2023-03-25T16:14:39;1.87;;;0.70;;
10535;SDS011;5316;49.538;8.352;2023-03-25T16:17:10;1.20;;;0.80;;
10535;SDS011;5316;49.538;8.352;2023-03-25T16:19:41;2.77;;;0.70;;
10535;SDS011;5316;49.538;8.352;2023-03-25T16:22:15;1.60;;;0.60;;
10535;SDS011;5316;49.538;8.352;2023-03-25T16:24:45;1.10;;;0.70;;
10535;SDS011;5316;49.538;8.352;2023-03-25T16:27:18;1.40;;;0.80;;
10535;SDS011;5316;49.538;8.352;2023-03-25T16:29:48;2.40;;;0.60;;
10535;SDS011;5316;49.538;8.352;2023-03-25T16:32:18;1.97;;;0.80;;
10535;SDS011;5316;49.538;8.352;2023-03-25T16:34:47;2.57;;;0.70;;
10535;SDS011;5316;49.538;8.352;2023-03-25T16:37:15;2.03;;;0.67;;
10535;SDS011;5316;49.538;8.352;2023-03-25T16:39:43;2.40;;;0.80;;
10535;SDS011;5316;49.538;8.352;2023-03-25T16:42:16;2.00;;;0.77;;
10535;SDS011;5316;49.538;8.352;2023-03-25T16:44:50;1.67;;;0.60;;
10535;SDS011;5316;49.538;8.352;2023-03-25T16:47:17;2.10;;;0.87;;
10535;SDS011;5316;49.538;8.352;2023-03-25T16:49:45;2.10;;;0.63;;
10535;SDS011;5316;49.538;8.352;2023-03-25T16:52:17;1.97;;;0.80;;
10535;SDS011;5316;49.538;8.352;2023-03-25T16:55:10;2.63;;;0.60;;
10535;SDS011;5316;49.538;8.352;2023-03-25T16:57:39;2.80;;;0.70;;
10535;SDS011;5316;49.538;8.352;2023-03-25T17:00:12;2.13;;;0.70;;
10535;SDS011;5316;49.538;8.352;2023-03-25T17:02:42;3.43;;;0.80;;
10535;SDS011;5316;49.538;8.352;2023-03-25T17:05:14;3.30;;;0.57;;
10535;SDS011;5316;49.538;8.352;2023-03-25T17:07:43;3.53;;;0.70;;
10535;SDS011;5316;49.538;8.352;2023-03-25T17:10:14;4.13;;;0.60;;
10535;SDS011;5316;49.538;8.352;2023-03-25T17:12:50;0.77;;;0.50;;
10535;SDS011;5316;49.538;8.352;2023-03-25T17:15:21;2.73;;;0.67;;
10535;SDS011;5316;49.538;8.352;2023-03-25T17:17:51;2.20;;;0.50;;
10535;SDS011;5316;49.538;8.352;2023-03-25T17:20:26;2.77;;;0.70;;
10535;SDS011;5316;49.538;8.352;2023-03-25T17:22:58;2.70;;;0.63;;
10535;SDS011;5316;49.538;8.352;2023-03-25T17:25:28;1.13;;;0.47;;
10535;SDS011;5316;49.538;8.352;2023-03-25T17:27:58;1.63;;;0.83;;
10535;SDS011;5316;49.538;8.352;2023-03-25T17:30:34;0.80;;;0.60;;
10535;SDS011;5316;49.538;8.352;2023-03-25T17:33:08;2.30;;;0.60;;
10535;SDS011;5316;49.538;8.352;2023-03-25T17:36:11;1.47;;;0.57;;
10535;SDS011;5316;49.538;8.352;2023-03-25T17:38:39;4.40;;;1.00;;
10535;SDS011;5316;49.538;8.352;2023-03-25T17:41:09;1.03;;;0.60;;
10535;SDS011;5316;49.538;8.352;2023-03-25T19:42:38;2.50;;;0.63;;
10535;SDS011;5316;49.538;8.352;2023-03-25T19:45:36;2.70;;;1.10;;
10535;SDS011;5316;49.538;8.352;2023-03-25T19:48:34;2.60;;;1.07;;
10535;SDS011;5316;49.538;8.352;2023-03-25T19:51:32;3.30;;;1.57;;
10535;SDS011;5316;49.538;8.352;2023-03-25T19:57:30;1.60;;;0.87;;